Flight Track Log - Related Links

Times and Time Zones

All times are in EST time to prevent confusion due to time zone crossing. See the FIN51 flight status page for this flight to view local times or setup timezone preferences in your user account.

Time Position Orientation Groundspeed Altitude Reporting Facility
EST Latitude Longitude Course Direction KTS MPH feet Rate Location/Type
Thu 11:05:48 AM 60.3010 24.8690 251° West 158 182 2,200  Level FlightAware ADS-B
Thu 11:06:23 AM 60.3080 24.8110 284° West 211 243 2,400 831 Climbing FlightAware ADS-B
Thu 11:06:53 AM 60.3370 24.7770 330° Northwest 263 303 3,100 2,175 Climbing FlightAware ADS-B
Thu 11:07:43 AM 60.3950 24.8020 12° North 278 320 5,300 2,700 Climbing FlightAware ADS-B
Thu 11:08:13 AM 60.4150 24.8720 60° Northeast 284 327 6,700 2,903 Climbing FlightAware ADS-B
Thu 11:08:45 AM 60.4260 24.9610 76° East 288 331 8,300 2,754 Climbing FlightAware ADS-B
Thu 11:09:14 AM 60.4500 25.0250 53° Northeast 296 341 9,500 2,108 Climbing FlightAware ADS-B
Thu 11:09:59 AM 60.4880 25.1270 53° Northeast 326 375 10,900 1,535 Climbing FlightAware ADS-B
Thu 11:10:40 AM 60.5240 25.2250 53° Northeast 358 412 11,700 1,895 Climbing FlightAware ADS-B
Thu 11:11:15 AM 60.5620 25.3280 53° Northeast 366 421 13,300 2,520 Climbing FlightAware ADS-B
Thu 11:11:30 AM 60.5750 25.3650 54° Northeast 371 427 13,800 2,025 Climbing FlightAware ADS-B
Thu 11:12:35 AM 60.6450 25.5580 53° Northeast 388 447 16,000 2,059 Climbing FlightAware ADS-B
Thu 11:13:12 AM 60.6820 25.6590 53° Northeast 393 452 17,300 2,229 Climbing FlightAware ADS-B
Thu 11:13:45 AM 60.7220 25.7710 54° Northeast 405 466 18,600 2,219 Climbing FlightAware ADS-B
Thu 11:14:25 AM 60.7660 25.8940 54° Northeast 409 471 20,000 1,971 Climbing FlightAware ADS-B
Thu 11:14:55 AM 60.7980 25.9860 54° Northeast 416 479 20,900 1,800 Climbing FlightAware ADS-B
Thu 11:15:35 AM 60.8450 26.1190 54° Northeast 419 482 22,100 1,778 Climbing FlightAware ADS-B
Thu 11:16:16 AM 60.8910 26.2490 54° Northeast 426 490 23,300 1,680 Climbing FlightAware ADS-B
Thu 11:16:50 AM 60.9320 26.3670 54° Northeast 437 503 24,200 1,541 Climbing FlightAware ADS-B
Thu 11:17:30 AM 60.9790 26.5020 54° Northeast 443 510 25,200 1,360 Climbing FlightAware ADS-B
Thu 11:18:05 AM 61.0190 26.6210 55° Northeast 451 519 25,900 1,250 Climbing FlightAware ADS-B
Thu 11:18:42 AM 61.0630 26.7460 54° Northeast 454 522 26,700 1,286 Climbing FlightAware ADS-B
Thu 11:19:15 AM 61.1050 26.8710 55° Northeast 456 525 27,400 1,143 Climbing FlightAware ADS-B
Thu 11:19:45 AM 61.1420 26.9800 55° Northeast 463 533 27,900 923 Climbing FlightAware ADS-B
Thu 11:20:20 AM 61.1850 27.1060 55° Northeast 474 545 28,400 880 Climbing FlightAware ADS-B
Thu 11:21:00 AM 61.2360 27.2600 55° Northeast 484 557 29,000 975 Climbing FlightAware ADS-B
Thu 11:21:40 AM 61.2880 27.4140 55° Northeast 487 560 29,700 857 Climbing FlightAware ADS-B
Thu 11:22:17 AM 61.3320 27.5480 56° Northeast 492 566 30,100 923 Climbing FlightAware ADS-B
Thu 11:22:58 AM 61.3880 27.7190 56° Northeast 497 572 30,900 1,012 Climbing FlightAware ADS-B
Thu 11:23:40 AM 61.4440 27.8900 56° Northeast 503 579 31,500 732 Climbing FlightAware ADS-B
Thu 11:24:20 AM 61.4950 28.0470 56° Northeast 508 585 31,900 892 Climbing FlightAware ADS-B
Thu 11:24:54 AM 61.5380 28.1800 56° Northeast 503 579 32,600 1,000 Climbing FlightAware ADS-B
Thu 11:25:26 AM 61.5790 28.3080 56° Northeast 506 582 33,000 621 Climbing FlightAware ADS-B
Thu 11:25:52 AM 61.6150 28.4210 56° Northeast 509 586 33,200 587 Climbing FlightAware ADS-B
Thu 11:26:58 AM 61.7000 28.6900 56° Northeast 515 593 33,900 761 Climbing FlightAware ADS-B
Thu 11:28:06 AM 61.7880 28.9700 56° Northeast 510 587 34,900 744 Climbing FlightAware ADS-B
Thu 11:28:59 AM 61.8580 29.1990 57° Northeast 512 589 35,400 511 Climbing FlightAware ADS-B
Thu 11:29:40 AM 61.9110 29.3720 57° Northeast 513 590 35,700 380 Climbing FlightAware ADS-B
Thu 11:30:18 AM 61.9600 29.5330 57° Northeast 517 595 35,900 380 Climbing FlightAware ADS-B
Thu 11:30:59 AM 62.0130 29.7080 57° Northeast 519 597 36,200 474 Climbing FlightAware ADS-B
Thu 11:31:34 AM 62.0580 29.8580 57° Northeast 517 595 36,500 600 Climbing FlightAware ADS-B
Thu 11:32:09 AM 62.1010 30.0010 57° Northeast 515 593 36,900 411 Climbing FlightAware ADS-B
Thu 11:32:47 AM 62.1470 30.1560 58° Northeast 516 594 37,000 87 Climbing FlightAware ADS-B
Thu 11:33:18 AM 62.1880 30.2960 58° Northeast 517 595 37,000  Level FlightAware ADS-B
Thu 11:33:56 AM 62.2380 30.4680 58° Northeast 514 592 37,000  Level FlightAware ADS-B
Thu 11:34:24 AM 62.2690 30.5750 58° Northeast 513 590 37,000  Level FlightAware ADS-B
Thu 11:34:56 AM 62.3080 30.7090 58° Northeast 515 593 37,000  Level FlightAware ADS-B
Thu 11:35:28 AM 62.3490 30.8540 59° Northeast 515 593 37,000  Level FlightAware ADS-B
Thu 11:36:19 AM 62.4130 31.0860 59° Northeast 515 593 37,000  Level FlightAware ADS-B
Thu 11:36:56 AM 62.4490 31.2620 66° East 515 593 37,000  Level FlightAware ADS-B
Thu 11:37:36 AM 62.4870 31.4550 67° East 515 593 37,000  Level FlightAware ADS-B
Thu 11:38:06 AM 62.5140 31.5970 68° East 516 594 37,000  Level FlightAware ADS-B
Thu 11:38:56 AM 62.5590 31.8360 68° East 515 593 37,000  Level FlightAware ADS-B
Thu 11:39:21 AM 62.5800 31.9490 68° East 515 593 37,000  Level FlightAware ADS-B
Thu 11:40:01 AM 62.6150 32.1380 68° East 516 594 37,000  Level FlightAware ADS-B
Thu 11:40:41 AM 62.6510 32.3380 69° East 516 594 37,000  Level FlightAware ADS-B
Thu 11:41:11 AM 62.6770 32.4840 69° East 516 594 37,000  Level FlightAware ADS-B
Thu 11:41:49 AM 62.7070 32.6530 69° East 516 594 37,000  Level FlightAware ADS-B
Thu 11:42:41 AM 62.7540 32.9150 69° East 515 593 37,000  Level FlightAware ADS-B
Thu 11:43:31 AM 62.7960 33.1560 69° East 513 590 37,000  Level FlightAware ADS-B
Thu 11:44:06 AM 62.8250 33.3280 70° East 512 589 37,000  Level FlightAware ADS-B
Thu 11:44:41 AM 62.8550 33.4990 69° East 513 590 37,000  Level FlightAware ADS-B
Thu 11:45:26 AM 62.8920 33.7180 70° East 514 592 37,000  Level FlightAware ADS-B
Thu 11:46:23 AM 62.9360 33.9860 70° East 515 593 37,000  Level FlightAware ADS-B
Thu 11:46:56 AM 62.9640 34.1560 70° East 514 592 37,000  Level FlightAware ADS-B
Thu 11:47:31 AM 62.9920 34.3260 70° East 514 592 37,000  Level FlightAware ADS-B
Thu 11:48:06 AM 63.0200 34.4950 70° East 514 592 37,000  Level FlightAware ADS-B
Thu 11:49:07 AM 63.0680 34.7950 70° East 516 594 37,000  Level FlightAware ADS-B
Thu 11:49:41 AM 63.0950 34.9700 71° East 515 593 37,000  Level FlightAware ADS-B
Thu 11:50:26 AM 63.1300 35.1920 71° East 513 590 37,000  Level FlightAware ADS-B
Thu 11:50:56 AM 63.1530 35.3420 71° East 512 589 37,000  Level FlightAware ADS-B
Thu 11:52:11 AM 63.2100 35.7130 71° East 512 589 37,000  Level FlightAware ADS-B
Thu 11:52:46 AM 63.2360 35.8860 71° East 512 589 37,000  Level FlightAware ADS-B
Thu 11:53:56 AM 63.2850 36.2220 72° East 513 590 37,000  Level FlightAware ADS-B
Thu 11:54:57 AM 63.3300 36.5350 72° East 513 590 37,000  Level FlightAware ADS-B
Thu 11:55:31 AM 63.3480 36.7150 77° East 508 585 37,000  Level FlightAware ADS-B
Thu 11:56:06 AM 63.3600 36.8940 81° East 509 586 37,000  Level FlightAware ADS-B
Thu 11:56:41 AM 63.3730 37.0730 81° East 507 583 37,000  Level FlightAware ADS-B
Thu 11:57:51 AM 63.3960 37.4320 82° East 509 586 37,000  Level FlightAware ADS-B
Thu 11:58:26 AM 63.4080 37.6140 82° East 510 587 37,000  Level FlightAware ADS-B
Thu 11:59:01 AM 63.4180 37.7820 82° East 510 587 37,000  Level FlightAware ADS-B
Thu 12:00:11 PM 63.4410 38.1620 82° East 513 590 37,000  Level FlightAware ADS-B
Thu 12:01:01 PM 63.4560 38.4160 82° East 515 593 37,000  Level FlightAware ADS-B
Thu 12:01:38 PM 63.4660 38.5820 82° East 515 593 37,000  Level FlightAware ADS-B
Thu 12:02:41 PM 63.4860 38.9530 83° East 513 590 37,000  Level FlightAware ADS-B
Thu 12:03:16 PM 63.4960 39.1390 83° East 513 590 37,000  Level FlightAware ADS-B
Thu 12:04:01 PM 63.5080 39.3720 83° East 515 593 37,000  Level FlightAware ADS-B
Thu 12:05:06 PM 63.5260 39.7170 83° East 516 594 37,000  Level FlightAware ADS-B
Thu 12:05:36 PM 63.5340 39.8780 84° East 515 593 37,000  Level FlightAware ADS-B
Thu 12:05:54 PM 63.5370 39.9530 85° East 515 593 37,000  Level FlightAware ADS-B
Thu 12:06:46 PM 63.5510 40.2430 84° East 515 593 37,000  Level FlightAware ADS-B
Thu 12:07:46 PM 63.5650 40.5650 84° East 515 593 37,000  Level FlightAware ADS-B
Thu 12:08:26 PM 63.5740 40.7750 84° East 513 590 37,000  Level FlightAware ADS-B
Thu 12:08:56 PM 63.5800 40.9270 85° East 513 590 37,000  Level FlightAware ADS-B
Thu 12:09:36 PM 63.5890 41.1470 85° East 513 590 37,000  Level FlightAware ADS-B
Thu 12:10:16 PM 63.5970 41.3560 85° East 515 593 37,000  Level FlightAware ADS-B
Thu 12:11:01 PM 63.6060 41.5810 85° East 515 593 37,000  Level FlightAware ADS-B
Thu 12:11:41 PM 63.6140 41.7860 85° East 516 594 37,000  Level FlightAware ADS-B
Thu 12:12:46 PM 63.6260 42.1400 85° East 519 597 37,000  Level FlightAware ADS-B
Thu 12:13:31 PM 63.6350 42.3930 85° East 519 597 37,000  Level FlightAware ADS-B
Thu 12:13:51 PM 63.6380 42.4910 86° East 518 596 37,000  Level FlightAware ADS-B
Thu 12:14:30 PM 63.6450 42.6690 85° East 518 596 37,000  Level FlightAware ADS-B
Thu 12:15:35 PM 63.6560 42.9660 85° East 518 596 37,000  Level FlightAware ADS-B
Thu 12:15:59 PM 63.6610 43.0760 84° East 518 596 37,000  Level FlightAware ADS-B
Thu 12:16:35 PM 63.6670 43.2410 85° East 518 596 37,000  Level FlightAware ADS-B
Thu 12:17:11 PM 63.6730 43.4050 85° East 518 596 37,000  Level FlightAware ADS-B
Thu 12:18:11 PM 63.6840 43.6800 85° East 518 596 37,000  Level FlightAware ADS-B
Thu 12:18:45 PM 63.6900 43.8360 85° East 518 596 37,000  Level FlightAware ADS-B
Thu 12:19:21 PM 63.6960 44.0000 85° East 518 596 37,000  Level FlightAware ADS-B
Thu 12:20:22 PM 63.7070 44.2800 85° East 518 596 37,000  Level FlightAware ADS-B
Thu 12:20:46 PM 63.7110 44.3900 85° East 518 596 37,000  Level FlightAware ADS-B
Thu 12:21:44 PM 63.7220 44.6560 85° East 518 596 37,000  Level FlightAware ADS-B
Thu 12:22:20 PM 63.7280 44.8210 85° East 518 596 37,000  Level FlightAware ADS-B
Thu 12:22:57 PM 63.7340 44.9900 85° East 518 596 37,000  Level FlightAware ADS-B
Thu 12:23:33 PM 63.7410 45.1550 84° East 518 596 37,000  Level FlightAware ADS-B
Thu 12:23:45 PM 63.7430 45.2100 85° East 518 596 37,000  Level FlightAware ADS-B
Thu 12:27:00 PM 63.7787 46.1833 85° East  Level Estimated
Thu 12:28:00 PM 63.7883 46.4833 86° East  Level Estimated
Thu 12:29:00 PM 63.7974 46.7835 86° East  Level Estimated
Thu 12:30:00 PM 63.8058 47.0838 86° East  Level Estimated
Thu 12:31:00 PM 63.8136 47.3843 87° East  Level Estimated
Thu 12:32:00 PM 63.8207 47.6850 87° East  Level Estimated
Thu 12:32:33 PM 63.7010 48.4690 87° East 504 580 37,000  Level FlightAware ADS-B
Thu 12:33:05 PM 63.7000 48.6400 91° East 502 578 37,000  Level FlightAware ADS-B
Thu 12:34:04 PM 63.6970 48.9600 91° East 504 580 37,000  Level FlightAware ADS-B
Thu 12:35:04 PM 63.6930 49.2740 92° East 501 577 37,000  Level FlightAware ADS-B
Thu 12:35:34 PM 63.6910 49.4300 92° East 500 575 37,000  Level FlightAware ADS-B
Thu 12:36:15 PM 63.6880 49.6400 92° East 498 573 37,000  Level FlightAware ADS-B
Thu 12:37:14 PM 63.6820 49.9440 92° East 495 570 37,000  Level FlightAware ADS-B
Thu 12:37:49 PM 63.6790 50.1260 92° East 494 568 37,000  Level FlightAware ADS-B
Thu 12:38:35 PM 63.6740 50.3510 93° East 493 567 37,000  Level FlightAware ADS-B
Thu 12:39:15 PM 63.6700 50.5670 92° East 494 568 37,000  Level FlightAware ADS-B
Thu 12:39:50 PM 63.6650 50.7420 94° East 496 571 37,000  Level FlightAware ADS-B
Thu 12:40:27 PM 63.6610 50.9270 93° East 497 572 37,000  Level FlightAware ADS-B
Thu 12:41:20 PM 63.6540 51.2060 93° East 495 570 37,000  Level FlightAware ADS-B
Thu 12:42:00 PM 63.6480 51.4160 94° East 495 570 37,000  Level FlightAware ADS-B
Thu 12:42:27 PM 63.6440 51.5430 94° East 494 568 37,000  Level FlightAware ADS-B
Thu 12:43:30 PM 63.6340 51.8720 94° East 493 567 37,000  Level FlightAware ADS-B
Thu 12:44:15 PM 63.6270 52.0870 94° East 497 572 37,000  Level FlightAware ADS-B
Thu 12:45:00 PM 63.6190 52.3340 94° East 499 574 37,000  Level FlightAware ADS-B
Thu 12:46:03 PM 63.6090 52.6230 94° East 500 575 37,000  Level FlightAware ADS-B
Thu 12:46:39 PM 63.6040 52.7820 94° East 500 575 37,000  Level FlightAware ADS-B
Thu 12:47:15 PM 63.5990 52.9410 94° East 500 575 37,000  Level FlightAware ADS-B
Thu 12:47:51 PM 63.5940 53.0990 94° East 500 575 37,000  Level FlightAware ADS-B
Thu 12:48:13 PM 63.5910 53.1960 94° East 500 575 37,000  Level FlightAware ADS-B
Thu 12:49:00 PM 63.5850 53.4040 94° East 500 575 37,000  Level FlightAware ADS-B
Thu 12:49:27 PM 63.5810 53.5230 94° East 500 575 37,000  Level FlightAware ADS-B
Thu 12:50:16 PM 63.5740 53.7390 94° East 500 575 37,000  Level FlightAware ADS-B
Thu 12:50:51 PM 63.5690 53.8930 94° East 500 575 37,000  Level FlightAware ADS-B
Thu 12:51:16 PM 63.5660 54.0030 93° East 500 575 37,000  Level FlightAware ADS-B
Thu 12:51:52 PM 63.5610 54.1620 94° East 500 575 37,000  Level FlightAware ADS-B
Thu 12:52:30 PM 63.5560 54.3290 94° East 500 575 37,000  Level FlightAware ADS-B
Thu 12:53:09 PM 63.5500 54.5010 94° East 500 575 37,000  Level FlightAware ADS-B
Thu 12:53:34 PM 63.5470 54.6110 93° East 500 575 37,000  Level FlightAware ADS-B
Thu 12:55:22 PM 63.4750 55.5050 100° East 503 579 37,000  Level FlightAware ADS-B
Thu 12:55:51 PM 63.4660 55.6650 97° East 502 578 37,000  Level FlightAware ADS-B
Thu 12:56:28 PM 63.4540 55.8620 98° East 500 575 37,000  Level FlightAware ADS-B
Thu 12:57:06 PM 63.4420 56.0660 97° East 498 573 37,000  Level FlightAware ADS-B
Thu 12:57:31 PM 63.4350 56.1810 98° East 498 573 37,000  Level FlightAware ADS-B
Thu 12:58:11 PM 63.4220 56.3950 98° East 497 572 37,000  Level FlightAware ADS-B
Thu 12:58:42 PM 63.4130 56.5340 98° East 497 572 37,000  Level FlightAware ADS-B
Thu 12:59:16 PM 63.4020 56.7160 98° East 498 573 37,000  Level FlightAware ADS-B
Thu 12:59:46 PM 63.3910 56.8760 99° East 499 574 37,000  Level FlightAware ADS-B
Thu 01:00:21 PM 63.3800 57.0490 98° East 500 575 37,000  Level FlightAware ADS-B
Thu 01:00:51 PM 63.3690 57.2010 99° East 501 577 37,000  Level FlightAware ADS-B
Thu 01:01:21 PM 63.3580 57.3600 99° East 501 577 37,000  Level FlightAware ADS-B
Thu 01:02:06 PM 63.3430 57.5850 98° East 498 573 37,000  Level FlightAware ADS-B
Thu 01:03:01 PM 63.3240 57.8470 99° East 493 567 37,000  Level FlightAware ADS-B
Thu 01:03:41 PM 63.3090 58.0410 100° East 491 565 37,000  Level FlightAware ADS-B
Thu 01:04:26 PM 63.2910 58.2820 99° East 491 565 37,000  Level FlightAware ADS-B
Thu 01:05:21 PM 63.2690 58.5540 100° East 488 562 37,000  Level FlightAware ADS-B
Thu 01:05:51 PM 63.2580 58.6950 100° East 487 560 37,000  Level FlightAware ADS-B
Thu 01:06:26 PM 63.2430 58.8770 100° East 489 563 37,000  Level FlightAware ADS-B
Thu 01:07:11 PM 63.2240 59.0960 101° East 486 559 37,000  Level FlightAware ADS-B
Thu 01:08:16 PM 63.1990 59.3950 100° East 485 558 37,000  Level FlightAware ADS-B
Thu 01:08:36 PM 63.1880 59.5130 102° East 488 562 37,000  Level FlightAware ADS-B
Thu 01:09:16 PM 63.1710 59.7040 101° East 495 570 37,000  Level FlightAware ADS-B
Thu 01:10:01 PM 63.1520 59.9280 101° East 496 571 37,000  Level FlightAware ADS-B
Thu 01:10:32 PM 63.1390 60.0760 101° East 495 570 37,000 100 Level FlightAware ADS-B
Thu 01:11:01 PM 63.1250 60.2220 102° East 499 574 37,100 350 Climbing FlightAware ADS-B
Thu 01:12:15 PM 63.1010 60.5700 99° East 502 578 37,600 201 Climbing FlightAware ADS-B
Thu 01:13:30 PM 63.0800 60.8940 98° East 502 578 37,600  Level FlightAware ADS-B
Thu 01:14:16 PM 63.0680 61.0930 97° East 502 578 37,600  Level FlightAware ADS-B
Thu 01:15:18 PM 63.0510 61.3600 98° East 502 578 37,600  Level FlightAware ADS-B
Thu 01:16:08 PM 63.0370 61.5760 98° East 502 578 37,600  Level FlightAware ADS-B
Thu 01:16:32 PM 63.0300 61.6790 98° East 502 578 37,600  Level FlightAware ADS-B
Thu 01:17:21 PM 63.0170 61.8900 98° East 502 578 37,600  Level FlightAware ADS-B
Thu 01:17:56 PM 63.0070 62.0410 98° East 502 578 37,600  Level FlightAware ADS-B
Thu 01:18:31 PM 62.9970 62.1920 98° East 502 578 37,600  Level FlightAware ADS-B
Thu 01:19:41 PM 62.9780 62.4930 98° East 502 578 37,600  Level FlightAware ADS-B
Thu 01:20:05 PM 62.9720 62.5960 97° East 502 578 37,600  Level FlightAware ADS-B
Thu 01:20:41 PM 62.9620 62.7510 98° East 502 578 37,600  Level FlightAware ADS-B
Thu 01:21:18 PM 62.9510 62.9100 99° East 502 578 37,600  Level FlightAware ADS-B
Thu 01:21:42 PM 62.9450 63.0130 97° East 502 578 37,600  Level FlightAware ADS-B
Thu 01:22:06 PM 62.9380 63.1170 98° East 502 578 37,600 111 Level FlightAware ADS-B
Thu 01:25:00 PM 62.8670 63.9384 100° East  Level Estimated
Thu 01:26:00 PM 62.8414 64.2207 101° East  Level Estimated
Thu 01:27:00 PM 62.8152 64.5025 101° East  Level Estimated
Thu 01:28:00 PM 62.7884 64.7838 102° East  Level Estimated
Thu 01:29:00 PM 62.7612 65.0646 102° East  Level Estimated
Thu 01:30:00 PM 62.7333 65.3449 102° East  Level Estimated
Thu 01:31:00 PM 62.7049 65.6246 102° East  Level Estimated
Thu 01:32:00 PM 62.6759 65.9038 103° East  Level Estimated
Thu 01:33:00 PM 62.6464 66.1824 103° East  Level Estimated
Thu 01:34:00 PM 62.6163 66.4605 103° East  Level Estimated
Thu 01:34:20 PM 62.4910 66.9630 103° East 491 565 39,000  Level FlightAware ADS-B
Thu 01:35:32 PM 62.4500 67.2950 105° East 489 563 39,000  Level FlightAware ADS-B
Thu 01:36:10 PM 62.4300 67.4560 105° East 491 565 39,000  Level FlightAware ADS-B
Thu 01:36:56 PM 62.3990 67.7060 105° East 493 567 39,000  Level FlightAware ADS-B
Thu 01:37:26 PM 62.3820 67.8430 105° East 495 570 39,000  Level FlightAware ADS-B
Thu 01:38:26 PM 62.3450 68.1280 106° East 495 570 39,000  Level FlightAware ADS-B
Thu 01:39:28 PM 62.3060 68.4230 106° East 496 571 39,000  Level FlightAware ADS-B
Thu 01:40:24 PM 62.2720 68.6810 106° East 494 568 39,000  Level FlightAware ADS-B
Thu 01:41:12 PM 62.2400 68.9130 106° East 493 567 39,000  Level FlightAware ADS-B
Thu 01:41:54 PM 62.2130 69.1100 106° East 494 568 39,000  Level FlightAware ADS-B
Thu 01:42:24 PM 62.1940 69.2500 106° East 495 570 39,000  Level FlightAware ADS-B
Thu 01:43:06 PM 62.1670 69.4410 107° East 496 571 39,000  Level FlightAware ADS-B
Thu 01:43:36 PM 62.1460 69.5860 107° East 495 570 39,000  Level FlightAware ADS-B
Thu 01:44:06 PM 62.1270 69.7200 107° East 495 570 39,000  Level FlightAware ADS-B
Thu 01:44:48 PM 62.0980 69.9210 107° East 493 567 39,000  Level FlightAware ADS-B
Thu 01:45:13 PM 62.0820 70.0310 107° East 492 566 39,000  Level FlightAware ADS-B
Thu 01:45:48 PM 62.0580 70.1970 107° East 491 565 39,000  Level FlightAware ADS-B
Thu 01:46:22 PM 62.0340 70.3520 108° East 490 564 39,000  Level FlightAware ADS-B
Thu 01:47:04 PM 62.0060 70.5400 108° East 488 562 39,000  Level FlightAware ADS-B
Thu 01:47:57 PM 61.9750 70.7460 108° East 488 562 39,000  Level FlightAware ADS-B
Thu 01:48:22 PM 62.0060 70.5400 288° West 487 560 39,000  Level FlightAware ADS-B
Thu 01:49:25 PM 61.9690 70.7850 108° East 487 560 39,000  Level FlightAware ADS-B
Thu 01:50:37 PM 61.9260 71.0630 108° East 487 560 39,000  Level FlightAware ADS-B
Thu 01:51:24 PM 61.8980 71.2450 108° East 487 560 39,000  Level FlightAware ADS-B
Thu 01:52:55 PM 61.7750 72.0270 108° East 487 560 39,000  Level FlightAware ADS-B
Thu 01:54:07 PM 61.7320 72.3040 108° East 487 560 39,000  Level FlightAware ADS-B
Thu 01:54:56 PM 61.7030 72.4920 108° East 487 560 39,000  Level FlightAware ADS-B
Thu 01:55:43 PM 61.6750 72.6720 108° East 487 560 39,000  Level FlightAware ADS-B
Thu 01:56:20 PM 61.6530 72.8140 108° East 487 560 39,000  Level FlightAware ADS-B
Thu 01:56:56 PM 61.6320 72.9520 108° East 487 560 39,000  Level FlightAware ADS-B
Thu 01:57:20 PM 61.6180 73.0440 108° East 487 560 39,000  Level FlightAware ADS-B
Thu 01:58:08 PM 61.5890 73.2280 108° East 487 560 39,000  Level FlightAware ADS-B
Thu 01:58:55 PM 61.5610 73.4080 108° East 487 560 39,000  Level FlightAware ADS-B
Thu 01:59:44 PM 61.5320 73.5950 108° East 487 560 39,000  Level FlightAware ADS-B
Thu 02:00:20 PM 61.5110 73.7330 108° East 487 560 39,000  Level FlightAware ADS-B
Thu 02:00:44 PM 61.4970 73.8250 108° East 487 560 39,000  Level FlightAware ADS-B
Thu 02:01:30 PM 61.4700 74.0000 108° East 487 560 39,000  Level FlightAware ADS-B
Thu 02:04:00 PM 61.3567 74.6440 110° East  Level Estimated
Thu 02:05:00 PM 61.3106 74.9003 110° East  Level Estimated
Thu 02:06:00 PM 61.2639 75.1558 111° Southeast  Level Estimated
Thu 02:07:00 PM 61.2168 75.4106 111° Southeast  Level Estimated
Thu 02:08:00 PM 61.1692 75.6646 111° Southeast  Level Estimated
Thu 02:09:00 PM 61.1211 75.9178 111° Southeast  Level Estimated
Thu 02:10:00 PM 61.0726 76.1703 112° Southeast  Level Estimated
Thu 02:11:00 PM 61.0236 76.4220 112° Southeast  Level Estimated
Thu 02:12:00 PM 60.9741 76.6729 112° Southeast  Level Estimated
Thu 02:13:00 PM 60.9242 76.9230 112° Southeast  Level Estimated
Thu 02:14:00 PM 60.8737 77.1724 112° Southeast  Level Estimated
Thu 02:15:00 PM 60.8229 77.4209 113° Southeast  Level Estimated
Thu 02:16:00 PM 60.7716 77.6687 113° Southeast  Level Estimated
Thu 02:17:00 PM 60.7198 77.9156 113° Southeast  Level Estimated
Thu 02:18:00 PM 60.6675 78.1618 113° Southeast  Level Estimated
Thu 02:19:00 PM 60.6149 78.4072 114° Southeast  Level Estimated
Thu 02:20:00 PM 60.5617 78.6517 114° Southeast  Level Estimated
Thu 02:21:00 PM 60.5082 78.8955 114° Southeast  Level Estimated
Thu 02:22:00 PM 60.4542 79.1384 114° Southeast  Level Estimated
Thu 02:23:00 PM 60.3997 79.3805 114° Southeast  Level Estimated
Thu 02:24:00 PM 60.3448 79.6218 115° Southeast  Level Estimated
Thu 02:25:00 PM 60.2895 79.8624 115° Southeast  Level Estimated
Thu 02:26:00 PM 60.2337 80.1021 115° Southeast  Level Estimated
Thu 02:26:09 PM 59.6940 80.0560 115° Southeast 472 543 39,000  Level FlightAware ADS-B
Thu 02:26:54 PM 59.6270 80.2070 131° Southeast 471 542 39,000  Level FlightAware ADS-B
Thu 02:27:24 PM 59.5840 80.3020 132° Southeast 471 542 39,000  Level FlightAware ADS-B
Thu 02:27:59 PM 59.5340 80.4130 132° Southeast 470 541 39,000  Level FlightAware ADS-B
Thu 02:28:59 PM 59.4470 80.6040 132° Southeast 468 539 39,000  Level FlightAware ADS-B
Thu 02:29:54 PM 59.3690 80.7730 132° Southeast 466 536 39,000  Level FlightAware ADS-B
Thu 02:30:24 PM 59.3240 80.8700 132° Southeast 465 535 39,000  Level FlightAware ADS-B
Thu 02:30:59 PM 59.2740 80.9790 132° Southeast 462 532 39,000  Level FlightAware ADS-B
Thu 02:31:44 PM 59.2100 81.1170 132° Southeast 460 529 39,000  Level FlightAware ADS-B
Thu 02:32:39 PM 59.1310 81.2850 132° Southeast 460 529 39,000  Level FlightAware ADS-B
Thu 02:33:19 PM 59.0740 81.4060 132° Southeast 460 529 39,000  Level FlightAware ADS-B
Thu 02:34:30 PM 58.9740 81.6160 133° Southeast 460 529 39,000  Level FlightAware ADS-B
Thu 02:35:04 PM 58.9220 81.7240 133° Southeast 459 528 39,000  Level FlightAware ADS-B
Thu 02:35:34 PM 58.8800 81.8120 133° Southeast 459 528 39,000  Level FlightAware ADS-B
Thu 02:36:34 PM 58.7950 81.9880 133° Southeast 461 531 39,000  Level FlightAware ADS-B
Thu 02:37:09 PM 58.7450 82.0920 133° Southeast 462 532 39,000  Level FlightAware ADS-B
Thu 02:37:44 PM 58.6910 82.2010 134° Southeast 464 534 39,000  Level FlightAware ADS-B
Thu 02:38:44 PM 58.6030 82.3810 133° Southeast 465 535 39,000  Level FlightAware ADS-B
Thu 02:39:14 PM 58.5580 82.4710 134° Southeast 466 536 39,000  Level FlightAware ADS-B
Thu 02:40:14 PM 58.4710 82.6460 134° Southeast 467 537 39,000  Level FlightAware ADS-B
Thu 02:41:19 PM 58.3730 82.8420 134° Southeast 466 536 39,000  Level FlightAware ADS-B
Thu 02:41:44 PM 58.3370 82.9120 134° Southeast 468 539 39,000  Level FlightAware ADS-B
Thu 02:42:20 PM 58.2750 83.0080 141° Southeast 477 549 39,000  Level FlightAware ADS-B
Thu 02:42:59 PM 58.2080 83.1170 139° Southeast 478 550 39,000  Level FlightAware ADS-B
Thu 02:43:34 PM 58.1500 83.2100 140° Southeast 480 552 39,000  Level FlightAware ADS-B
Thu 02:44:29 PM 58.0550 83.3570 141° Southeast 486 559 39,000  Level FlightAware ADS-B
Thu 02:45:29 PM 57.9500 83.5180 141° Southeast 494 568 39,000  Level FlightAware ADS-B
Thu 02:46:14 PM 57.8690 83.6420 141° Southeast 494 568 39,000  Level FlightAware ADS-B
Thu 02:47:14 PM 57.7660 83.7990 141° Southeast 484 557 39,000  Level FlightAware ADS-B
Thu 02:47:39 PM 57.7210 83.8670 141° Southeast 485 558 39,000  Level FlightAware ADS-B
Thu 02:48:14 PM 57.6630 83.9540 141° Southeast 483 556 39,000  Level FlightAware ADS-B
Thu 02:49:04 PM 57.5730 84.0880 141° Southeast 483 556 39,000  Level FlightAware ADS-B
Thu 02:49:34 PM 57.5220 84.1650 141° Southeast 482 555 39,000  Level FlightAware ADS-B
Thu 02:50:34 PM 57.4170 84.3190 142° Southeast 479 551 39,000  Level FlightAware ADS-B
Thu 02:51:49 PM 57.2880 84.5090 141° Southeast 478 550 39,000  Level FlightAware ADS-B
Thu 02:52:19 PM 57.2360 84.5850 142° Southeast 476 548 39,000  Level FlightAware ADS-B
Thu 02:52:49 PM 57.1840 84.6600 142° Southeast 475 547 39,000  Level FlightAware ADS-B
Thu 02:53:29 PM 57.1180 84.7560 142° Southeast 475 547 39,000  Level FlightAware ADS-B
Thu 02:54:30 PM 57.0120 84.8990 144° Southeast 474 545 39,000  Level FlightAware ADS-B
Thu 02:55:19 PM 56.9210 85.0220 144° Southeast 473 544 39,000  Level FlightAware ADS-B
Thu 02:55:49 PM 56.8690 85.0920 144° Southeast 474 545 39,000  Level FlightAware ADS-B
Thu 02:56:44 PM 56.7730 85.2210 144° Southeast 472 543 39,000  Level FlightAware ADS-B
Thu 02:57:19 PM 56.7140 85.2990 144° Southeast 470 541 39,000  Level FlightAware ADS-B
Thu 02:57:59 PM 56.6450 85.4030 140° Southeast 465 535 39,000  Level FlightAware ADS-B
Thu 02:59:59 PM 56.4580 85.7250 136° Southeast 474 545 39,000  Level FlightAware ADS-B
Thu 03:00:59 PM 56.3620 85.8850 137° Southeast 475 547 39,000  Level FlightAware ADS-B
Thu 03:01:50 PM 56.2810 86.0200 137° Southeast 475 547 39,000  Level FlightAware ADS-B
Thu 03:02:54 PM 56.1770 86.1920 137° Southeast 474 545 39,000  Level FlightAware ADS-B
Thu 03:03:31 PM 56.1220 86.2830 137° Southeast 473 544 39,000  Level FlightAware ADS-B
Thu 03:04:24 PM 56.0320 86.4300 138° Southeast 474 545 39,000  Level FlightAware ADS-B
Thu 03:04:54 PM 55.9820 86.5120 137° Southeast 475 547 39,000  Level FlightAware ADS-B
Thu 03:06:00 PM 55.8760 86.6830 138° Southeast 478 550 39,000  Level FlightAware ADS-B
Thu 03:06:30 PM 55.8260 86.7630 138° Southeast 479 551 39,000  Level FlightAware ADS-B
Thu 03:07:34 PM 55.7200 86.9320 138° Southeast 478 550 39,000  Level FlightAware ADS-B
Thu 03:08:05 PM 55.6710 87.0110 138° Southeast 477 549 39,000  Level FlightAware ADS-B
Thu 03:08:49 PM 55.5980 87.1270 138° Southeast 474 545 39,000  Level FlightAware ADS-B
Thu 03:09:44 PM 55.5080 87.2670 139° Southeast 471 542 39,000  Level FlightAware ADS-B
Thu 03:10:44 PM 55.4110 87.4200 138° Southeast 471 542 39,000  Level FlightAware ADS-B
Thu 03:11:49 PM 55.3050 87.5840 139° Southeast 471 542 39,000  Level FlightAware ADS-B
Thu 03:12:54 PM 55.1990 87.7500 138° Southeast 473 544 39,000  Level FlightAware ADS-B
Thu 03:13:54 PM 55.1180 87.9260 129° Southeast 461 531 39,000  Level FlightAware ADS-B
Thu 03:14:19 PM 55.0900 88.0030 122° Southeast 461 531 39,000  Level FlightAware ADS-B
Thu 03:15:19 PM 55.0210 88.1910 123° Southeast 461 531 39,000  Level FlightAware ADS-B
Thu 03:16:19 PM 54.9510 88.3780 123° Southeast 464 534 39,000  Level FlightAware ADS-B
Thu 03:17:09 PM 54.8920 88.5340 123° Southeast 467 537 39,000  Level FlightAware ADS-B
Thu 03:17:44 PM 54.8520 88.6380 124° Southeast 469 540 39,000  Level FlightAware ADS-B
Thu 03:18:19 PM 54.8080 88.7530 124° Southeast 470 541 39,000  Level FlightAware ADS-B
Thu 03:18:45 PM 54.7790 88.8300 123° Southeast 470 541 39,000  Level FlightAware ADS-B
Thu 03:19:19 PM 54.7360 88.9400 124° Southeast 468 539 39,000  Level FlightAware ADS-B
Thu 03:19:54 PM 54.6940 89.0490 124° Southeast 468 539 39,000  Level FlightAware ADS-B
Thu 03:20:24 PM 54.6580 89.1410 124° Southeast 467 537 39,000  Level FlightAware ADS-B
Thu 03:21:19 PM 54.5920 89.3120 124° Southeast 467 537 39,000  Level FlightAware ADS-B
Thu 03:22:29 PM 54.5070 89.5280 124° Southeast 472 543 39,000  Level FlightAware ADS-B
Thu 03:23:29 PM 54.4340 89.7130 124° Southeast 475 547 39,000  Level FlightAware ADS-B
Thu 03:24:09 PM 54.3840 89.8370 125° Southeast 471 542 39,000  Level FlightAware ADS-B
Thu 03:24:39 PM 54.3470 89.9290 125° Southeast 471 542 39,000  Level FlightAware ADS-B
Thu 03:25:14 PM 54.3040 90.0360 125° Southeast 469 540 39,000  Level FlightAware ADS-B
Thu 03:26:14 PM 54.2310 90.2170 125° Southeast 469 540 39,000  Level FlightAware ADS-B
Thu 03:26:35 PM 54.2100 90.2700 124° Southeast 471 542 39,000  Level FlightAware ADS-B
Thu 03:27:19 PM 54.1510 90.4140 125° Southeast 471 542 39,000  Level FlightAware ADS-B
Thu 03:28:10 PM 54.0980 90.5470 124° Southeast 471 542 39,000  Level FlightAware ADS-B
Thu 03:28:52 PM 54.0340 90.6970 126° Southeast 473 544 39,000  Level FlightAware ADS-B
Thu 03:29:27 PM 53.9910 90.8010 125° Southeast 473 544 39,000  Level FlightAware ADS-B
Thu 03:30:05 PM 53.9440 90.9140 125° Southeast 473 544 39,000  Level FlightAware ADS-B
Thu 03:30:53 PM 53.8850 91.0540 126° Southeast 472 543 39,000  Level FlightAware ADS-B
Thu 03:31:18 PM 53.8590 91.1180 125° Southeast 472 543 39,000  Level FlightAware ADS-B
Thu 03:31:58 PM 53.7980 91.2610 126° Southeast 475 547 39,000  Level FlightAware ADS-B
Thu 03:32:28 PM 53.7600 91.3510 126° Southeast 473 544 39,000  Level FlightAware ADS-B
Thu 03:33:08 PM 53.7120 91.4730 124° Southeast 473 544 39,000  Level FlightAware ADS-B
Thu 03:33:38 PM 53.6770 91.5660 122° Southeast 470 541 39,000  Level FlightAware ADS-B
Thu 03:34:18 PM 53.6330 91.6860 122° Southeast 471 542 39,000  Level FlightAware ADS-B
Thu 03:34:48 PM 53.5990 91.7770 122° Southeast 473 544 39,000  Level FlightAware ADS-B
Thu 03:35:48 PM 53.5300 91.9590 122° Southeast 475 547 39,000  Level FlightAware ADS-B
Thu 03:36:32 PM 53.4850 92.0780 122° Southeast 476 548 39,000  Level FlightAware ADS-B
Thu 03:37:09 PM 53.4490 92.1770 121° Southeast 476 548 39,000  Level FlightAware ADS-B
Thu 03:37:28 PM 53.4060 92.2810 125° Southeast 478 550 39,000  Level FlightAware ADS-B
Thu 03:38:29 PM 53.3450 92.4440 122° Southeast 478 550 39,000  Level FlightAware ADS-B
Thu 03:39:05 PM 53.3090 92.5410 122° Southeast 478 550 39,000  Level FlightAware ADS-B
Thu 03:39:41 PM 53.2740 92.6370 121° Southeast 478 550 39,000  Level FlightAware ADS-B
Thu 03:40:54 PM 53.2010 92.8310 122° Southeast 478 550 39,000  Level FlightAware ADS-B
Thu 03:41:18 PM 53.1770 92.8950 122° Southeast 478 550 39,000  Level FlightAware ADS-B
Thu 03:42:31 PM 53.1040 93.0890 122° Southeast 478 550 39,000  Level FlightAware ADS-B
Thu 03:42:55 PM 53.0800 93.1520 122° Southeast 478 550 39,000  Level FlightAware ADS-B
Thu 03:43:32 PM 53.0430 93.2510 122° Southeast 478 550 39,000  Level FlightAware ADS-B
Thu 03:44:33 PM 52.9830 93.4120 122° Southeast 478 550 39,000  Level FlightAware ADS-B
Thu 03:45:23 PM 52.9330 93.5440 122° Southeast 478 550 39,000  Level FlightAware ADS-B
Thu 03:46:03 PM 52.8930 93.6500 122° Southeast 478 550 39,000  Level FlightAware ADS-B
Thu 03:46:50 PM 52.8460 93.7740 122° Southeast 478 550 39,000  Level FlightAware ADS-B
Thu 03:47:27 PM 52.8090 93.8720 122° Southeast 478 550 39,000 -156 Level FlightAware ADS-B
Thu 03:50:00 PM 52.6388 94.3482 120° Southeast  Level Estimated
Thu 03:51:00 PM 52.5715 94.5339 121° Southeast  Level Estimated
Thu 03:52:00 PM 52.5039 94.7190 121° Southeast  Level Estimated
Thu 03:53:00 PM 52.4361 94.9036 121° Southeast  Level Estimated
Thu 03:54:00 PM 52.3680 95.0876 121° Southeast  Level Estimated
Thu 03:55:00 PM 52.2995 95.2710 121° Southeast  Level Estimated
Thu 03:56:00 PM 52.2308 95.4539 121° Southeast  Level Estimated
Thu 03:57:00 PM 52.1618 95.6362 122° Southeast  Level Estimated
Thu 03:58:00 PM 52.0926 95.8179 122° Southeast  Level Estimated
Thu 03:59:00 PM 52.0230 95.9991 122° Southeast  Level Estimated
Thu 04:00:00 PM 51.9532 96.1797 122° Southeast  Level Estimated
Thu 04:01:00 PM 51.8831 96.3597 122° Southeast  Level Estimated
Thu 04:02:00 PM 51.8127 96.5392 122° Southeast  Level Estimated
Thu 04:03:00 PM 51.7421 96.7181 122° Southeast  Level Estimated
Thu 04:04:00 PM 51.6712 96.8965 123° Southeast  Level Estimated
Thu 04:05:00 PM 51.6000 97.0743 123° Southeast  Level Estimated
Thu 04:06:00 PM 51.5285 97.2516 123° Southeast  Level Estimated
Thu 04:07:00 PM 51.4568 97.4283 123° Southeast  Level Estimated
Thu 04:08:00 PM 51.3848 97.6044 123° Southeast  Level Estimated
Thu 04:09:00 PM 51.3126 97.7800 123° Southeast  Level Estimated
Thu 04:10:00 PM 51.2401 97.9550 123° Southeast  Level Estimated
Thu 04:11:00 PM 51.1673 98.1295 124° Southeast  Level Estimated
Thu 04:12:00 PM 51.0942 98.3034 124° Southeast  Level Estimated
Thu 04:13:00 PM 51.0210 98.4768 124° Southeast  Level Estimated
Thu 04:14:00 PM 50.9474 98.6496 124° Southeast  Level Estimated
Thu 04:15:00 PM 50.8736 98.8219 124° Southeast  Level Estimated
Thu 04:16:00 PM 50.7996 98.9936 124° Southeast  Level Estimated
Thu 04:17:00 PM 50.7253 99.1648 124° Southeast  Level Estimated
Thu 04:18:00 PM 50.6507 99.3355 125° Southeast  Level Estimated
Thu 04:19:00 PM 50.5759 99.5056 125° Southeast  Level Estimated
Thu 04:20:00 PM 50.5009 99.6751 125° Southeast  Level Estimated
Thu 04:21:00 PM 50.4256 99.8442 125° Southeast  Level Estimated
Thu 04:22:00 PM 50.3501 100.0127 125° Southeast  Level Estimated
Thu 04:23:00 PM 50.2743 100.1806 125° Southeast  Level Estimated
Thu 04:24:00 PM 50.1983 100.3480 125° Southeast  Level Estimated
Thu 04:25:00 PM 50.1220 100.5149 125° Southeast  Level Estimated
Thu 04:26:00 PM 50.0455 100.6813 126° Southeast  Level Estimated
Thu 04:27:00 PM 49.9688 100.8471 126° Southeast  Level Estimated
Thu 04:28:00 PM 49.8918 101.0124 126° Southeast  Level Estimated
Thu 04:29:00 PM 49.8146 101.1772 126° Southeast  Level Estimated
Thu 04:30:00 PM 49.7372 101.3414 126° Southeast  Level Estimated
Thu 04:31:00 PM 49.6595 101.5051 126° Southeast  Level Estimated
Thu 04:32:00 PM 49.5816 101.6683 126° Southeast  Level Estimated
Thu 04:33:00 PM 49.5035 101.8310 126° Southeast  Level Estimated
Thu 04:34:00 PM 49.4251 101.9931 127° Southeast  Level Estimated
Thu 04:35:00 PM 49.3465 102.1548 127° Southeast  Level Estimated
Thu 04:36:00 PM 49.2677 102.3159 127° Southeast  Level Estimated
Thu 04:37:00 PM 49.1887 102.4765 127° Southeast  Level Estimated
Thu 04:38:00 PM 49.1095 102.6366 127° Southeast  Level Estimated
Thu 04:39:00 PM 49.0300 102.7962 127° Southeast  Level Estimated
Thu 04:40:00 PM 48.9503 102.9553 127° Southeast  Level Estimated
Thu 04:41:00 PM 48.8704 103.1138 127° Southeast  Level Estimated
Thu 04:42:00 PM 48.7903 103.2719 128° Southeast  Level Estimated
Thu 04:43:00 PM 48.7099 103.4294 128° Southeast  Level Estimated
Thu 04:44:00 PM 48.6294 103.5865 128° Southeast  Level Estimated
Thu 04:45:00 PM 48.5486 103.7430 128° Southeast  Level Estimated
Thu 04:46:00 PM 48.4676 103.8991 128° Southeast  Level Estimated
Thu 04:47:00 PM 48.3864 104.0546 128° Southeast  Level Estimated
Thu 04:48:00 PM 48.3050 104.2097 128° Southeast  Level Estimated
Thu 04:49:00 PM 48.2234 104.3642 128° Southeast  Level Estimated
Thu 04:50:00 PM 48.1416 104.5183 128° Southeast  Level Estimated
Thu 04:51:00 PM 48.0596 104.6719 129° Southeast  Level Estimated
Thu 04:52:00 PM 47.9774 104.8250 129° Southeast  Level Estimated
Thu 04:53:00 PM 47.8950 104.9776 129° Southeast  Level Estimated
Thu 04:54:00 PM 47.8123 105.1297 129° Southeast  Level Estimated
Thu 04:55:00 PM 47.7295 105.2813 129° Southeast  Level Estimated
Thu 04:56:00 PM 47.6465 105.4325 129° Southeast  Level Estimated
Thu 04:57:00 PM 47.5632 105.5832 129° Southeast  Level Estimated
Thu 04:58:00 PM 47.4798 105.7333 129° Southeast  Level Estimated
Thu 04:59:00 PM 47.3962 105.8830 129° Southeast  Level Estimated
Thu 05:00:00 PM 47.3124 106.0323 130° Southeast  Level Estimated
Thu 05:01:00 PM 47.2284 106.1811 130° Southeast  Level Estimated
Thu 05:02:00 PM 47.1442 106.3294 130° Southeast  Level Estimated
Thu 05:03:00 PM 47.0598 106.4772 130° Southeast  Level Estimated
Thu 05:04:00 PM 46.9752 106.6245 130° Southeast  Level Estimated
Thu 05:05:00 PM 46.8905 106.7714 130° Southeast  Level Estimated
Thu 05:06:00 PM 46.8055 106.9178 130° Southeast  Level Estimated
Thu 05:07:00 PM 46.7204 107.0638 130° Southeast  Level Estimated
Thu 05:08:00 PM 46.6351 107.2093 130° Southeast  Level Estimated
Thu 05:09:00 PM 46.5496 107.3544 131° Southeast  Level Estimated
Thu 05:10:00 PM 46.4639 107.4989 131° Southeast  Level Estimated
Thu 05:11:00 PM 46.3780 107.6431 131° Southeast  Level Estimated
Thu 05:12:00 PM 46.2920 107.7868 131° Southeast  Level Estimated
Thu 05:13:00 PM 46.2057 107.9300 131° Southeast  Level Estimated
Thu 05:14:00 PM 46.1193 108.0728 131° Southeast  Level Estimated
Thu 05:15:00 PM 46.0327 108.2151 131° Southeast  Level Estimated
Thu 05:16:00 PM 45.9460 108.3570 131° Southeast  Level Estimated
Thu 05:17:00 PM 45.8590 108.4984 131° Southeast  Level Estimated
Thu 05:18:00 PM 45.7719 108.6394 132° Southeast  Level Estimated
Thu 05:19:00 PM 45.6846 108.7800 132° Southeast  Level Estimated
Thu 05:20:00 PM 45.5972 108.9201 132° Southeast  Level Estimated
Thu 05:21:00 PM 45.5095 109.0598 132° Southeast  Level Estimated
Thu 05:22:00 PM 45.4217 109.1991 132° Southeast  Level Estimated
Thu 05:23:00 PM 45.3338 109.3379 132° Southeast  Level Estimated
Thu 05:24:00 PM 45.2457 109.4763 132° Southeast  Level Estimated
Thu 05:25:00 PM 45.1573 109.6142 132° Southeast  Level Estimated
Thu 05:26:00 PM 45.0689 109.7517 132° Southeast  Level Estimated
Thu 05:27:00 PM 44.9803 109.8889 132° Southeast  Level Estimated
Thu 05:28:00 PM 44.8915 110.0255 132° Southeast  Level Estimated
Thu 05:29:00 PM 44.8025 110.1618 133° Southeast  Level Estimated
Thu 05:30:00 PM 44.7134 110.2976 133° Southeast  Level Estimated
Thu 05:31:00 PM 44.6243 110.4327 133° Southeast  Level Estimated
Thu 05:32:00 PM 44.5351 110.5675 133° Southeast  Level Estimated
Thu 05:33:00 PM 44.4457 110.7017 133° Southeast  Level Estimated
Thu 05:34:00 PM 44.3562 110.8356 133° Southeast  Level Estimated
Thu 05:35:00 PM 44.2665 110.9691 133° Southeast  Level Estimated
Thu 05:36:00 PM 44.1766 111.1021 133° Southeast  Level Estimated
Thu 05:37:00 PM 44.0866 111.2348 133° Southeast  Level Estimated
Thu 05:38:00 PM 43.9964 111.3670 133° Southeast  Level Estimated
Thu 05:39:00 PM 43.9061 111.4989 134° Southeast  Level Estimated
Thu 05:40:00 PM 43.8157 111.6303 134° Southeast  Level Estimated
Thu 05:41:00 PM 43.7251 111.7614 134° Southeast  Level Estimated
Thu 05:42:00 PM 43.6343 111.8920 134° Southeast  Level Estimated
Thu 05:43:00 PM 43.5434 112.0223 134° Southeast  Level Estimated
Thu 05:44:00 PM 43.4523 112.1522 134° Southeast  Level Estimated
Thu 05:45:00 PM 43.3611 112.2816 134° Southeast  Level Estimated
Thu 05:46:00 PM 43.2698 112.4107 134° Southeast  Level Estimated
Thu 05:47:00 PM 43.1783 112.5394 134° Southeast  Level Estimated
Thu 05:48:00 PM 43.0866 112.6677 134° Southeast  Level Estimated
Thu 05:49:00 PM 42.9949 112.7956 134° Southeast  Level Estimated
Thu 05:50:00 PM 42.9029 112.9232 135° Southeast  Level Estimated
Thu 05:51:00 PM 42.8108 113.0504 135° Southeast  Level Estimated
Thu 05:52:00 PM 42.7186 113.1772 135° Southeast  Level Estimated
Thu 05:53:00 PM 42.6263 113.3036 135° Southeast  Level Estimated
Thu 05:54:00 PM 42.5338 113.4296 135° Southeast  Level Estimated
Thu 05:55:00 PM 42.4412 113.5553 135° Southeast  Level Estimated
Thu 05:56:00 PM 42.3484 113.6806 135° Southeast  Level Estimated
Thu 05:57:00 PM 42.2555 113.8055 135° Southeast  Level Estimated
Thu 05:58:00 PM 42.1625 113.9300 135° Southeast  Level Estimated
Thu 05:59:00 PM 42.0693 114.0542 135° Southeast  Level Estimated
Thu 06:00:00 PM 41.9760 114.1781 135° Southeast  Level Estimated
Thu 06:01:00 PM 41.8826 114.3015 135° Southeast  Level Estimated
Thu 06:02:00 PM 41.7890 114.4246 136° Southeast  Level Estimated
Thu 06:03:00 PM 41.6953 114.5474 136° Southeast  Level Estimated
Thu 06:04:00 PM 41.6015 114.6697 136° Southeast  Level Estimated
Thu 06:05:00 PM 41.5076 114.7918 136° Southeast  Level Estimated
Thu 06:06:00 PM 41.4135 114.9135 136° Southeast  Level Estimated
Thu 06:07:00 PM 41.3193 115.0348 136° Southeast  Level Estimated
Thu 06:07:32 PM 40.3930 115.2320 136° Southeast 444 511 17,000  Level FlightAware ADS-B
Thu 06:08:00 PM 41.2249 115.1557 136° Southeast  Level Estimated
Thu 06:08:11 PM 40.3920 115.3220 91° East 444 511 17,000  Level FlightAware ADS-B
Thu 06:08:59 PM 40.3910 115.4320 91° East 444 511 17,000  Level FlightAware ADS-B
Thu 06:09:35 PM 40.3900 115.5140 91° East 444 511 17,000  Level FlightAware ADS-B
Thu 06:09:59 PM 40.3890 115.5690 91° East 444 511 17,000  Level FlightAware ADS-B
Thu 06:10:35 PM 40.3880 115.6520 91° East 444 511 17,000  Level FlightAware ADS-B
Thu 06:11:26 PM 40.3860 115.7690 91° East 444 511 17,000 -1,914 Level FlightAware ADS-B
Thu 06:13:18 PM 40.0640 115.7640 181° South 337 388 11,800 -1,926 Descending FlightAware ADS-B
Thu 06:14:08 PM 39.9970 115.8210 147° Southeast 338 389 11,800 -122 Level FlightAware ADS-B
Thu 06:14:56 PM 39.9340 115.8840 143° Southeast 337 388 11,600 -661 Descending FlightAware ADS-B
Thu 06:15:57 PM 39.9000 115.9180 143° Southeast 330 380 10,600 -960 Descending FlightAware ADS-B
Thu 06:16:36 PM 39.8130 116.0040 143° Southeast 319 367 10,000 -724 Descending FlightAware ADS-B
Thu 06:16:55 PM 39.7930 116.0230 144° Southeast 310 357 9,900 -321 Descending FlightAware ADS-B
Thu 06:17:32 PM 39.7510 116.0650 142° Southeast 295 339 9,700 -590 Descending FlightAware ADS-B
Thu 06:17:56 PM 39.7270 116.0950 136° Southeast 302 348 9,300 -1,000 Descending FlightAware ADS-B
Thu 06:18:20 PM 39.7190 116.1370 104° East 305 351 8,900 -980 Descending FlightAware ADS-B
Thu 06:18:45 PM 39.7190 116.1830 90° East 301 346 8,500 -923 Descending FlightAware ADS-B
Thu 06:19:12 PM 39.7180 116.2300 92° East 298 343 8,100 -1,021 Descending FlightAware ADS-B
Thu 06:19:32 PM 39.7170 116.2660 92° East 296 341 7,700 -1,091 Descending FlightAware ADS-B
Thu 06:19:56 PM 39.7160 116.3080 92° East 293 337 7,300 -973 Descending FlightAware ADS-B
Thu 06:20:09 PM 39.7150 116.3300 93° East 292 336 7,100 -1,024 Descending FlightAware ADS-B
Thu 06:20:37 PM 39.7140 116.3800 91° East 289 333 6,600 -1,000 Descending FlightAware ADS-B
Thu 06:21:09 PM 39.7130 116.4340 91° East 291 335 6,100 -750 Descending FlightAware ADS-B
Thu 06:21:41 PM 39.7110 116.4900 93° East 280 322 5,800 -453 Descending FlightAware ADS-B
Thu 06:22:02 PM 39.7110 116.5250 90° East 265 305 5,700 -136 Descending FlightAware ADS-B
Thu 06:22:25 PM 39.7100 116.5600 92° East 248 285 5,700  Level FlightAware ADS-B
Thu 06:22:52 PM 39.7090 116.6000 92° East 242 278 5,700  Level FlightAware ADS-B
Thu 06:23:14 PM 39.7170 116.6300 71° East 251 289 5,700  Level FlightAware ADS-B
Thu 06:23:42 PM 39.7440 116.6520 32° Northeast 252 290 5,700  Level FlightAware ADS-B
Thu 06:24:02 PM 39.7660 116.6610 17° North 241 277 5,700 -500 Level FlightAware ADS-B
Thu 06:24:30 PM 39.7950 116.6590 357° North 228 262 5,300 -1,179 Descending FlightAware ADS-B
Thu 06:24:58 PM 39.8250 116.6540 353° North 224 258 4,600 -1,279 Descending FlightAware ADS-B
Thu 06:25:31 PM 39.8560 116.6490 353° North 199 229 4,000 -1,125 Descending FlightAware ADS-B
Thu 06:26:02 PM 39.8820 116.6450 353° North 190 219 3,400 -610 Descending FlightAware ADS-B
Thu 06:26:30 PM 39.9030 116.6420 354° North 190 219 3,400 -977 Level FlightAware ADS-B
Thu 06:26:45 PM 39.9200 116.6390 352° North 181 208 2,700 -2,455 Descending FlightAware ADS-B
Thu 06:26:52 PM 39.9250 116.6380 351° North 180 207 2,500 -1,000 Descending FlightAware ADS-B
Thu 06:27:33 PM 39.9570 116.6340 355° North 179 206 1,900 -909 Descending FlightAware ADS-B
Thu 06:27:58 PM 39.9800 116.6300 352° North 182 209 1,500 -955 Descending FlightAware ADS-B
Thu 06:28:17 PM 39.9960 116.6280 355° North 167 192 1,200 -923 Descending FlightAware ADS-B
Thu 06:28:24 PM 39.9990 116.6270 346° North 165 190 1,100 -171 Descending FlightAware ADS-B
Thu 06:28:52 PM 40.0170 116.6240 353° North 165 190 1,100  Level FlightAware ADS-B
Thu 06:32:00 PM 40.0801 116.5846 334° Northwest  Level Estimated
Thu 06:33:00 PM 40.0801 116.5846 288° West  Level Estimated
Thu 06:34:00 PM 40.0801 116.5846 288° West  Level Estimated
Thu 06:35:00 PM 40.0801 116.5846 288° West  Level Estimated
Thu 06:36:00 PM 40.0801 116.5846 288° West  Level Estimated

Login

Don't have an account? Register now (free) for customized features, flight alerts, and more!